createdAt,value
2023-03-10T00:00:10.930Z,1.42
2023-03-10T00:02:13.681Z,1.50
2023-03-10T00:04:16.578Z,1.10
2023-03-10T00:06:22.272Z,1.10
2023-03-10T00:08:27.098Z,1.30
2023-03-10T00:10:30.277Z,1.40
2023-03-10T00:12:33.081Z,1.60
2023-03-10T00:14:36.389Z,1.02
2023-03-10T00:16:40.726Z,1.35
2023-03-10T00:18:43.514Z,1.45
2023-03-10T00:20:46.260Z,1.40
2023-03-10T00:22:49.474Z,1.52
2023-03-10T00:24:52.236Z,1.50
2023-03-10T00:26:55.006Z,1.52
2023-03-10T00:28:57.932Z,2.00
2023-03-10T00:31:02.504Z,1.65
2023-03-10T00:33:06.973Z,1.92
2023-03-10T00:35:10.154Z,1.90
2023-03-10T00:37:12.888Z,1.67
2023-03-10T00:39:15.758Z,1.48
2023-03-10T00:41:21.550Z,1.33
2023-03-10T00:43:24.558Z,1.65
2023-03-10T00:45:27.716Z,1.60
2023-03-10T00:47:30.488Z,1.50
2023-03-10T00:49:34.668Z,1.83
2023-03-10T00:51:38.499Z,1.40
2023-03-10T00:53:41.955Z,1.20
2023-03-10T00:55:45.139Z,1.60
2023-03-10T00:57:47.961Z,1.50
2023-03-10T00:59:51.866Z,1.50
2023-03-10T01:01:55.503Z,1.35
2023-03-10T01:04:00.323Z,1.83
2023-03-10T01:06:04.694Z,1.90
2023-03-10T01:08:07.501Z,1.88
2023-03-10T01:10:11.511Z,2.05
2023-03-10T01:12:14.658Z,1.40
2023-03-10T01:14:18.255Z,1.70
2023-03-10T01:16:21.115Z,1.80
2023-03-10T01:18:24.167Z,1.35
2023-03-10T01:20:26.922Z,1.58
2023-03-10T01:22:31.089Z,1.70
2023-03-10T01:24:33.945Z,1.60
2023-03-10T01:26:36.770Z,1.45
2023-03-10T01:28:39.800Z,1.40
2023-03-10T01:30:43.673Z,1.58
2023-03-10T01:32:47.138Z,1.50
2023-03-10T01:34:50.396Z,1.48
2023-03-10T01:36:53.223Z,0.95
2023-03-10T01:38:58.560Z,2.05
2023-03-10T01:41:01.383Z,1.48
2023-03-10T01:43:31.544Z,1.30
2023-03-10T01:46:11.767Z,1.15
2023-03-10T01:48:16.125Z,1.30
2023-03-10T01:50:20.078Z,1.30
2023-03-10T01:52:25.709Z,1.45
2023-03-10T01:54:34.764Z,1.15
2023-03-10T01:56:38.651Z,1.00
2023-03-10T01:58:45.387Z,0.63
2023-03-10T02:00:48.392Z,0.63
2023-03-10T02:02:56.112Z,0.82
2023-03-10T02:04:59.320Z,0.85
2023-03-10T02:07:08.598Z,0.77
2023-03-10T02:09:13.019Z,0.63
2023-03-10T02:11:17.539Z,0.63
2023-03-10T02:13:20.384Z,0.77
2023-03-10T02:15:23.598Z,0.70
2023-03-10T02:17:27.934Z,0.65
2023-03-10T02:19:44.791Z,0.40
2023-03-10T02:21:53.552Z,0.70
2023-03-10T02:24:04.404Z,0.60
2023-03-10T02:26:15.466Z,0.63
2023-03-10T02:28:19.901Z,0.30
2023-03-10T02:30:25.673Z,0.98
2023-03-10T02:32:31.793Z,0.50
2023-03-10T02:34:35.919Z,0.82
2023-03-10T02:36:38.665Z,0.50
2023-03-10T02:38:41.467Z,0.50
2023-03-10T02:40:47.705Z,0.43
2023-03-10T02:42:54.321Z,0.40
2023-03-10T02:44:58.548Z,0.38
2023-03-10T02:47:01.372Z,0.88
2023-03-10T02:49:06.276Z,0.45
2023-03-10T02:51:18.348Z,0.30
2023-03-10T02:53:24.787Z,0.50
2023-03-10T02:55:27.566Z,0.30
2023-03-10T02:57:30.489Z,0.47
2023-03-10T02:59:33.333Z,0.50
2023-03-10T03:01:37.822Z,0.50
2023-03-10T03:03:42.148Z,0.50
2023-03-10T03:05:46.231Z,0.55
2023-03-10T03:07:49.277Z,0.40
2023-03-10T03:09:52.138Z,0.60
2023-03-10T03:11:54.931Z,0.30
2023-03-10T03:13:57.865Z,0.40
2023-03-10T03:16:01.369Z,0.40
2023-03-10T03:18:05.691Z,0.45
2023-03-10T03:20:14.413Z,0.40
2023-03-10T03:22:19.101Z,0.43
2023-03-10T03:24:22.037Z,0.40
2023-03-10T03:26:27.325Z,0.50
2023-03-10T03:28:36.106Z,0.77
2023-03-10T03:30:40.127Z,0.30
2023-03-10T03:32:43.855Z,0.50
2023-03-10T03:34:49.145Z,0.50
2023-03-10T03:36:53.062Z,0.43
2023-03-10T03:39:02.211Z,0.38
2023-03-10T03:41:07.878Z,0.40
2023-03-10T03:43:13.696Z,0.50
2023-03-10T03:45:18.884Z,0.47
2023-03-10T03:47:22.065Z,0.60
2023-03-10T03:49:24.834Z,0.45
2023-03-10T03:51:28.964Z,0.60
2023-03-10T03:53:34.237Z,0.50
2023-03-10T03:55:38.008Z,0.60
2023-03-10T03:57:42.757Z,0.52
2023-03-10T03:59:45.551Z,1.10
2023-03-10T04:01:48.367Z,0.80
2023-03-10T04:03:51.469Z,0.60
2023-03-10T04:05:54.477Z,0.60
2023-03-10T04:07:59.018Z,0.47
2023-03-10T04:10:05.137Z,0.60
2023-03-10T04:12:09.320Z,0.60
2023-03-10T04:14:12.787Z,0.75
2023-03-10T04:16:15.610Z,0.50
2023-03-10T04:18:20.235Z,0.82
2023-03-10T04:20:24.344Z,0.70
2023-03-10T04:22:27.284Z,1.00
2023-03-10T04:24:32.349Z,0.80
2023-03-10T04:26:35.702Z,0.70
2023-03-10T04:28:40.017Z,1.15
2023-03-10T04:30:45.195Z,0.98
2023-03-10T04:32:49.444Z,0.98
2023-03-10T04:34:53.659Z,1.10
2023-03-10T04:36:56.471Z,0.77
2023-03-10T04:38:59.432Z,0.90
2023-03-10T04:41:09.431Z,1.10
2023-03-10T04:43:16.195Z,0.95
2023-03-10T04:45:20.722Z,1.00
2023-03-10T04:47:23.542Z,1.00
2023-03-10T04:49:26.838Z,0.90
2023-03-10T04:51:30.107Z,1.13
2023-03-10T04:53:34.279Z,0.90
2023-03-10T04:55:37.262Z,1.00
2023-03-10T04:57:42.953Z,0.98
2023-03-10T04:59:45.825Z,0.95
2023-03-10T05:01:49.124Z,1.70
2023-03-10T05:03:51.932Z,0.90
2023-03-10T05:05:54.676Z,0.90
2023-03-10T05:07:57.555Z,0.90
2023-03-10T05:10:01.657Z,1.20
2023-03-10T05:12:06.967Z,1.13
2023-03-10T05:14:13.694Z,0.70
2023-03-10T05:16:18.268Z,0.70
2023-03-10T05:18:22.300Z,0.90
2023-03-10T05:20:26.501Z,0.68
2023-03-10T05:22:29.358Z,0.85
2023-03-10T05:24:32.514Z,0.90
2023-03-10T05:26:35.926Z,0.80
2023-03-10T05:28:39.954Z,0.80
2023-03-10T05:30:45.373Z,1.02
2023-03-10T05:32:48.218Z,1.20
2023-03-10T05:34:51.231Z,1.08
2023-03-10T05:36:54.393Z,0.63
2023-03-10T05:38:57.194Z,0.88
2023-03-10T05:40:59.947Z,0.98
2023-03-10T05:43:02.695Z,0.80
2023-03-10T05:45:06.599Z,0.98
2023-03-10T05:47:11.141Z,0.85
2023-03-10T05:49:13.888Z,1.00
2023-03-10T05:51:16.684Z,0.52
2023-03-10T05:53:19.895Z,0.60
2023-03-10T05:55:24.012Z,0.70
2023-03-10T05:57:27.859Z,1.27
2023-03-10T05:59:30.594Z,1.27
2023-03-10T06:01:33.519Z,0.80
2023-03-10T06:03:38.808Z,0.85
2023-03-10T06:05:41.598Z,1.13
2023-03-10T06:07:44.343Z,0.82
2023-03-10T06:09:47.175Z,1.05
2023-03-10T06:11:49.880Z,0.98
2023-03-10T06:13:52.624Z,0.80
2023-03-10T06:15:57.361Z,0.70
2023-03-10T06:18:00.220Z,0.80
2023-03-10T06:20:05.271Z,0.70
2023-03-10T06:22:07.983Z,0.40
2023-03-10T06:24:10.746Z,0.60
2023-03-10T06:26:15.560Z,0.80
2023-03-10T06:28:18.321Z,1.50
2023-03-10T06:30:21.751Z,1.60
2023-03-10T06:32:24.580Z,1.30
2023-03-10T06:34:27.387Z,1.13
2023-03-10T06:36:32.642Z,0.80
2023-03-10T06:38:35.364Z,0.60
2023-03-10T06:40:38.068Z,1.10
2023-03-10T06:42:41.091Z,0.47
2023-03-10T06:44:43.834Z,0.50
2023-03-10T06:46:46.734Z,0.65
2023-03-10T06:48:50.488Z,0.57
2023-03-10T06:50:53.196Z,0.43
2023-03-10T06:52:57.218Z,0.50
2023-03-10T06:55:00.139Z,0.82
2023-03-10T06:57:02.864Z,0.80
2023-03-10T06:59:05.560Z,0.70
2023-03-10T07:01:09.473Z,0.77
2023-03-10T07:03:12.780Z,0.70
2023-03-10T07:05:15.517Z,0.60
2023-03-10T07:07:18.181Z,1.02
2023-03-10T07:09:22.182Z,0.52
2023-03-10T07:11:26.642Z,0.93
2023-03-10T07:13:29.360Z,0.77
2023-03-10T07:15:32.187Z,1.20
2023-03-10T07:17:34.927Z,1.10
2023-03-10T07:19:38.043Z,1.15
2023-03-10T07:21:40.750Z,2.20
2023-03-10T07:23:43.543Z,4.95
2023-03-10T07:25:47.652Z,2.00
2023-03-10T07:27:50.490Z,2.45
2023-03-10T07:29:53.214Z,2.20
2023-03-10T07:31:56.287Z,2.95
2023-03-10T07:33:58.999Z,4.07
2023-03-10T07:36:06.349Z,1.83
2023-03-10T07:38:09.629Z,1.63
2023-03-10T07:40:13.227Z,1.27
2023-03-10T07:42:17.298Z,1.48
2023-03-10T07:44:20.014Z,0.93
2023-03-10T07:46:23.127Z,1.30
2023-03-10T07:48:25.939Z,5.10
2023-03-10T07:50:28.851Z,1.40
2023-03-10T07:52:31.620Z,1.88
2023-03-10T07:54:34.350Z,1.65
2023-03-10T07:56:37.035Z,1.63
2023-03-10T07:58:41.918Z,0.50
2023-03-10T08:00:44.656Z,0.50
2023-03-10T08:02:47.376Z,0.90
2023-03-10T08:04:50.129Z,4.35
2023-03-10T08:06:52.893Z,2.15
2023-03-10T08:08:57.593Z,3.72
2023-03-10T08:11:04.713Z,3.58
2023-03-10T08:13:07.391Z,0.80
2023-03-10T08:15:13.373Z,0.55
2023-03-10T08:17:16.355Z,0.95
2023-03-10T08:19:19.184Z,0.40
2023-03-10T08:21:22.269Z,0.40
2023-03-10T08:23:25.775Z,2.60
2023-03-10T08:25:28.552Z,3.70
2023-03-10T08:27:31.332Z,4.88
2023-03-10T08:29:34.197Z,1.58
2023-03-10T08:31:38.387Z,0.55
2023-03-10T08:33:42.425Z,0.75
2023-03-10T08:35:45.233Z,0.43
2023-03-10T08:37:47.966Z,0.70
2023-03-10T08:39:53.510Z,0.50
2023-03-10T08:41:56.894Z,0.80
2023-03-10T08:44:00.532Z,0.80
2023-03-10T08:46:03.460Z,0.57
2023-03-10T08:48:07.673Z,0.63
2023-03-10T08:50:12.849Z,0.60
2023-03-10T08:52:15.697Z,0.85
2023-03-10T08:54:21.351Z,0.82
2023-03-10T08:56:24.826Z,0.80
2023-03-10T08:58:27.636Z,0.95
2023-03-10T09:00:30.354Z,0.95
2023-03-10T09:02:33.628Z,0.95
2023-03-10T09:04:37.742Z,0.90
2023-03-10T09:06:40.596Z,1.10
2023-03-10T09:08:44.210Z,1.52
2023-03-10T09:10:47.410Z,0.77
2023-03-10T09:12:52.624Z,0.90
2023-03-10T09:15:01.672Z,0.90
2023-03-10T09:17:04.798Z,0.73
2023-03-10T09:19:07.602Z,0.95
2023-03-10T09:21:13.242Z,1.10
2023-03-10T09:23:17.484Z,0.60
2023-03-10T09:25:20.415Z,1.15
2023-03-10T09:27:23.141Z,1.10
2023-03-10T09:29:42.218Z,0.90
2023-03-10T09:31:48.241Z,0.77
2023-03-10T09:33:51.272Z,0.70
2023-03-10T09:36:08.425Z,0.80
2023-03-10T09:38:13.281Z,0.80
2023-03-10T09:40:18.950Z,0.63
2023-03-10T09:42:38.836Z,0.47
2023-03-10T09:44:48.285Z,0.70
2023-03-10T09:47:05.746Z,2.67
2023-03-10T09:49:15.319Z,0.73
2023-03-10T09:51:22.528Z,0.60
2023-03-10T09:53:49.725Z,0.80
2023-03-10T09:55:53.176Z,1.00
2023-03-10T09:57:57.836Z,0.68
2023-03-10T10:00:05.332Z,0.60
2023-03-10T10:02:17.255Z,1.00
2023-03-10T10:04:23.882Z,0.40
2023-03-10T10:06:29.024Z,2.90
2023-03-10T10:08:49.030Z,0.98
2023-03-10T10:10:56.948Z,0.55
2023-03-10T10:13:04.183Z,0.68
2023-03-10T10:15:16.193Z,0.50
2023-03-10T10:17:27.549Z,0.98
2023-03-10T10:19:30.423Z,0.57
2023-03-10T10:21:42.558Z,0.50
2023-03-10T10:23:50.614Z,0.68
2023-03-10T10:25:53.452Z,0.57
2023-03-10T10:28:03.152Z,0.77
2023-03-10T10:30:30.052Z,0.90
2023-03-10T10:32:32.964Z,1.00
2023-03-10T10:34:37.098Z,0.80
2023-03-10T10:36:51.962Z,0.95
2023-03-10T10:38:57.597Z,0.98
2023-03-10T10:41:06.987Z,0.80
2023-03-10T10:43:17.654Z,0.70
2023-03-10T10:45:27.727Z,1.23
2023-03-10T10:47:32.499Z,1.10
2023-03-10T10:49:37.579Z,0.85
2023-03-10T10:51:40.685Z,0.88
2023-03-10T10:53:43.825Z,0.82
2023-03-10T10:56:00.207Z,1.23
2023-03-10T10:58:06.579Z,1.00
2023-03-10T11:00:25.129Z,1.33
2023-03-10T11:02:32.648Z,0.68
2023-03-10T11:04:44.003Z,1.08
2023-03-10T11:06:47.045Z,1.02
2023-03-10T11:08:52.116Z,0.90
2023-03-10T11:11:00.933Z,1.05
2023-03-10T11:13:08.091Z,0.90
2023-03-10T11:15:20.709Z,1.13
2023-03-10T11:17:28.535Z,0.75
2023-03-10T11:19:38.096Z,0.80
2023-03-10T11:21:44.745Z,0.80
2023-03-10T11:23:55.725Z,0.80
2023-03-10T11:26:05.877Z,0.90
2023-03-10T11:28:27.248Z,0.90
2023-03-10T11:30:33.402Z,0.60
2023-03-10T11:32:47.266Z,1.10
2023-03-10T11:34:53.850Z,1.00
2023-03-10T11:37:04.959Z,0.90
2023-03-10T11:39:18.056Z,1.00
2023-03-10T11:41:27.193Z,0.65
2023-03-10T11:43:38.111Z,0.63
2023-03-10T11:45:48.455Z,0.80
2023-03-10T11:48:02.029Z,1.23
2023-03-10T11:50:19.134Z,0.70
2023-03-10T11:52:24.324Z,0.60
2023-03-10T11:54:31.065Z,0.75
2023-03-10T11:56:35.130Z,0.80
2023-03-10T11:58:46.296Z,0.90
2023-03-10T12:00:52.594Z,0.73
2023-03-10T12:03:08.420Z,0.43
2023-03-10T12:05:21.089Z,0.50
2023-03-10T12:07:28.281Z,0.50
2023-03-10T12:09:42.048Z,0.50
2023-03-10T12:11:47.027Z,0.60
2023-03-10T12:13:54.090Z,0.43
2023-03-10T12:15:59.853Z,0.50
2023-03-10T12:18:05.309Z,0.50
2023-03-10T12:20:28.231Z,0.98
2023-03-10T12:22:39.028Z,0.43
2023-03-10T12:24:46.465Z,0.30
2023-03-10T12:27:01.255Z,0.20
2023-03-10T12:29:31.593Z,0.63
2023-03-10T12:31:47.530Z,0.40
2023-03-10T12:33:54.847Z,0.30
2023-03-10T12:36:02.309Z,0.43
2023-03-10T12:38:36.455Z,0.28
2023-03-10T12:40:49.225Z,0.30
2023-03-10T12:42:53.265Z,0.70
2023-03-10T12:45:07.736Z,0.60
2023-03-10T12:47:23.612Z,0.85
2023-03-10T12:49:36.764Z,1.95
2023-03-10T12:51:44.056Z,2.95
2023-03-10T12:53:53.815Z,2.92
2023-03-10T12:56:36.710Z,3.30
2023-03-10T12:58:46.797Z,1.80
2023-03-10T13:00:51.572Z,1.52
2023-03-10T13:03:00.331Z,3.17
2023-03-10T13:05:07.044Z,1.70
2023-03-10T13:07:15.986Z,2.45
2023-03-10T13:09:27.141Z,1.73
2023-03-10T13:11:36.432Z,1.17
2023-03-10T13:13:41.343Z,1.90
2023-03-10T13:15:44.987Z,1.00
2023-03-10T13:17:47.650Z,0.68
2023-03-10T13:19:59.283Z,1.75
2023-03-10T13:22:04.736Z,1.95
2023-03-10T13:24:24.102Z,1.40
2023-03-10T13:26:27.712Z,1.20
2023-03-10T13:28:34.494Z,1.50
2023-03-10T13:30:38.672Z,0.95
2023-03-10T13:32:41.955Z,1.20
2023-03-10T13:34:44.732Z,1.45
2023-03-10T13:36:48.230Z,0.50
2023-03-10T13:38:53.009Z,0.60
2023-03-10T13:41:02.151Z,0.80
2023-03-10T13:43:07.228Z,0.60
2023-03-10T13:45:22.422Z,0.50
2023-03-10T13:47:28.076Z,0.50
2023-03-10T13:49:34.163Z,0.45
2023-03-10T13:51:38.366Z,0.30
2023-03-10T13:53:41.137Z,0.20
2023-03-10T13:55:43.848Z,0.40
2023-03-10T13:57:49.193Z,0.30
2023-03-10T13:59:53.267Z,1.15
2023-03-10T14:01:58.887Z,1.10
2023-03-10T14:04:08.559Z,0.22
2023-03-10T14:06:13.730Z,0.32
2023-03-10T14:08:22.335Z,0.43
2023-03-10T14:10:25.277Z,0.60
2023-03-10T14:12:39.032Z,0.20
2023-03-10T14:14:42.731Z,0.52
2023-03-10T14:16:51.116Z,0.30
2023-03-10T14:18:53.877Z,0.30
2023-03-10T14:20:58.036Z,0.60
2023-03-10T14:23:01.702Z,1.10
2023-03-10T14:25:11.148Z,1.20
2023-03-10T14:27:13.989Z,0.40
2023-03-10T14:29:18.550Z,0.32
2023-03-10T14:31:24.452Z,0.55
2023-03-10T14:33:27.246Z,0.38
2023-03-10T14:35:31.008Z,0.45
2023-03-10T14:37:35.017Z,0.35
2023-03-10T14:39:37.781Z,0.25
2023-03-10T14:41:40.508Z,0.63
2023-03-10T14:43:43.935Z,0.60
2023-03-10T14:45:48.649Z,0.20
2023-03-10T14:47:52.287Z,0.20
2023-03-10T14:49:55.480Z,0.13
2023-03-10T14:51:58.182Z,0.20
2023-03-10T14:54:02.607Z,0.50
2023-03-10T14:56:05.811Z,0.73
2023-03-10T14:58:09.707Z,0.82
2023-03-10T15:00:14.795Z,1.15
2023-03-10T15:02:22.018Z,0.60
2023-03-10T15:04:24.776Z,0.30
2023-03-10T15:06:27.614Z,0.20
2023-03-10T15:08:30.977Z,0.20
2023-03-10T15:10:38.519Z,0.20
2023-03-10T15:12:41.937Z,0.40
2023-03-10T15:14:51.729Z,0.28
2023-03-10T15:16:55.434Z,0.20
2023-03-10T15:18:58.166Z,0.20
2023-03-10T15:21:02.416Z,0.28
2023-03-10T15:23:05.220Z,0.52
2023-03-10T15:25:09.126Z,0.30
2023-03-10T15:27:14.239Z,0.40
2023-03-10T15:29:18.032Z,0.75
2023-03-10T15:31:21.042Z,0.80
2023-03-10T15:33:23.787Z,0.50
2023-03-10T15:35:28.093Z,0.43
2023-03-10T15:37:30.863Z,0.50
2023-03-10T15:39:36.482Z,1.17
2023-03-10T15:41:40.638Z,0.50
2023-03-10T15:43:44.693Z,1.08
2023-03-10T15:45:49.246Z,0.60
2023-03-10T15:47:52.067Z,0.75
2023-03-10T15:49:54.794Z,1.20
2023-03-10T15:51:57.488Z,1.15
2023-03-10T15:54:00.263Z,1.00
2023-03-10T15:56:06.525Z,0.75
2023-03-10T15:58:09.593Z,1.10
2023-03-10T16:00:16.851Z,1.10
2023-03-10T16:02:19.655Z,0.85
2023-03-10T16:04:23.633Z,1.20
2023-03-10T16:06:27.460Z,1.08
2023-03-10T16:08:32.549Z,1.10
2023-03-10T16:10:35.925Z,1.02
2023-03-10T16:12:38.791Z,1.10
2023-03-10T16:14:41.538Z,1.10
2023-03-10T16:16:45.652Z,1.30
2023-03-10T16:18:48.933Z,0.90
2023-03-10T16:20:59.207Z,0.88
2023-03-10T16:23:01.951Z,0.90
2023-03-10T16:25:05.041Z,1.10
2023-03-10T16:27:08.270Z,0.93
2023-03-10T16:29:11.054Z,1.23
2023-03-10T16:31:16.011Z,2.10
2023-03-10T16:33:20.140Z,1.08
2023-03-10T16:35:22.846Z,1.05
2023-03-10T16:37:27.363Z,1.13
2023-03-10T16:39:31.038Z,0.90
2023-03-10T16:41:33.878Z,0.82
2023-03-10T16:43:36.739Z,0.98
2023-03-10T16:45:39.500Z,0.98
2023-03-10T16:47:43.890Z,1.73
2023-03-10T16:49:48.018Z,1.40
2023-03-10T16:51:51.034Z,1.05
2023-03-10T16:53:56.188Z,1.20
2023-03-10T16:56:05.582Z,0.90
2023-03-10T16:58:08.961Z,1.23
2023-03-10T17:00:13.391Z,0.90
2023-03-10T17:02:16.822Z,1.90
2023-03-10T17:04:20.670Z,1.30
2023-03-10T17:06:26.908Z,1.10
2023-03-10T17:08:29.662Z,0.57
2023-03-10T17:10:33.420Z,0.82
2023-03-10T17:12:36.118Z,0.80
2023-03-10T17:14:38.859Z,0.80
2023-03-10T17:16:42.426Z,1.10
2023-03-10T17:18:45.787Z,0.90
2023-03-10T17:20:48.480Z,1.02
2023-03-10T17:22:54.660Z,1.40
2023-03-10T17:24:59.523Z,1.48
2023-03-10T17:27:02.544Z,1.52
2023-03-10T17:29:06.224Z,1.00
2023-03-10T17:31:09.344Z,2.35
2023-03-10T17:33:12.285Z,2.22
2023-03-10T17:35:15.013Z,2.00
2023-03-10T17:37:17.736Z,2.40
2023-03-10T17:39:23.655Z,2.42
2023-03-10T17:41:27.369Z,1.90
2023-03-10T17:43:34.514Z,1.70
2023-03-10T17:45:37.474Z,1.58
2023-03-10T17:47:41.099Z,1.98
2023-03-10T17:49:43.944Z,1.63
2023-03-10T17:51:47.224Z,1.75
2023-03-10T17:53:50.688Z,1.73
2023-03-10T17:55:55.183Z,1.90
2023-03-10T17:57:58.086Z,1.70
2023-03-10T18:00:00.806Z,2.00
2023-03-10T18:02:03.585Z,1.42
2023-03-10T18:04:06.368Z,1.90
2023-03-10T18:06:14.248Z,1.90
2023-03-10T18:08:17.025Z,1.60
2023-03-10T18:10:20.075Z,1.70
2023-03-10T18:12:24.186Z,1.13
2023-03-10T18:14:26.955Z,1.48
2023-03-10T18:16:32.252Z,2.58
2023-03-10T18:18:35.408Z,2.22
2023-03-10T18:20:38.519Z,1.73
2023-03-10T18:22:41.232Z,1.75
2023-03-10T18:24:44.105Z,1.88
2023-03-10T18:26:47.011Z,1.58
2023-03-10T18:28:51.092Z,1.42
2023-03-10T18:30:53.848Z,1.60
2023-03-10T18:32:56.543Z,1.83
2023-03-10T18:34:59.582Z,1.60
2023-03-10T18:37:02.348Z,2.25
2023-03-10T18:39:07.265Z,1.88
2023-03-10T18:41:10.185Z,1.63
2023-03-10T18:43:12.966Z,1.55
2023-03-10T18:45:17.064Z,1.70
2023-03-10T18:47:19.904Z,2.15
2023-03-10T18:49:22.682Z,1.70
2023-03-10T18:51:27.117Z,1.35
2023-03-10T18:53:30.270Z,2.70
2023-03-10T18:55:33.008Z,1.50
2023-03-10T18:57:35.910Z,1.73
2023-03-10T18:59:38.786Z,1.88
2023-03-10T19:01:42.897Z,1.85
2023-03-10T19:03:45.680Z,2.13
2023-03-10T19:05:53.557Z,1.48
2023-03-10T19:07:56.486Z,2.10
2023-03-10T19:09:59.348Z,1.60
2023-03-10T19:12:02.075Z,2.47
2023-03-10T19:14:06.607Z,2.30
2023-03-10T19:16:10.554Z,1.75
2023-03-10T19:18:14.703Z,2.42
2023-03-10T19:20:18.615Z,2.75
2023-03-10T19:22:21.369Z,2.03
2023-03-10T19:24:24.099Z,2.15
2023-03-10T19:26:26.904Z,1.88
2023-03-10T19:28:29.835Z,2.42
2023-03-10T19:30:32.790Z,2.28
2023-03-10T19:32:35.608Z,2.95
2023-03-10T19:34:39.742Z,1.90
2023-03-10T19:36:42.537Z,2.10
2023-03-10T19:38:45.866Z,1.88
2023-03-10T19:40:48.629Z,1.83
2023-03-10T19:42:51.422Z,1.45
2023-03-10T19:44:54.300Z,1.95
2023-03-10T19:46:57.158Z,1.88
2023-03-10T19:48:59.998Z,1.35
2023-03-10T19:51:05.503Z,1.75
2023-03-10T19:53:08.312Z,1.35
2023-03-10T19:55:16.340Z,1.95
2023-03-10T19:57:19.318Z,1.58
2023-03-10T19:59:22.090Z,1.60
2023-03-10T20:01:26.888Z,1.42
2023-03-10T20:03:31.784Z,1.63
2023-03-10T20:05:34.552Z,1.40
2023-03-10T20:07:39.403Z,1.50
2023-03-10T20:09:42.258Z,1.58
2023-03-10T20:11:45.140Z,1.65
2023-03-10T20:13:48.494Z,1.35
2023-03-10T20:15:51.227Z,1.45
2023-03-10T20:17:54.349Z,1.05
2023-03-10T20:19:57.173Z,1.13
2023-03-10T20:22:01.275Z,1.10
2023-03-10T20:24:06.225Z,0.90
2023-03-10T20:26:10.941Z,0.90
2023-03-10T20:28:14.364Z,1.17
2023-03-10T20:30:20.403Z,1.20
2023-03-10T20:32:23.192Z,1.00
2023-03-10T20:34:25.944Z,0.70
2023-03-10T20:36:28.704Z,0.90
2023-03-10T20:38:31.449Z,1.10
2023-03-10T20:40:38.347Z,1.00
2023-03-10T20:42:41.130Z,1.00
2023-03-10T20:44:43.837Z,1.10
2023-03-10T20:46:47.226Z,1.00
2023-03-10T20:48:50.782Z,0.93
2023-03-10T20:50:55.138Z,0.95
2023-03-10T20:52:58.270Z,0.63
2023-03-10T20:55:00.957Z,1.42
2023-03-10T20:57:05.179Z,1.23
2023-03-10T20:59:07.929Z,1.10
2023-03-10T21:01:16.638Z,0.98
2023-03-10T21:03:21.329Z,1.20
2023-03-10T21:05:24.798Z,1.02
2023-03-10T21:07:27.546Z,1.30
2023-03-10T21:09:30.552Z,1.30
2023-03-10T21:11:33.863Z,0.90
2023-03-10T21:13:37.979Z,1.85
2023-03-10T21:15:41.251Z,1.50
2023-03-10T21:17:44.747Z,1.20
2023-03-10T21:19:47.523Z,1.25
2023-03-10T21:21:50.297Z,1.27
2023-03-10T21:23:53.075Z,1.27
2023-03-10T21:25:55.821Z,1.10
2023-03-10T21:27:59.729Z,1.10
2023-03-10T21:30:05.953Z,1.05
2023-03-10T21:32:08.991Z,1.50
2023-03-10T21:34:11.900Z,1.60
2023-03-10T21:36:16.327Z,1.10
2023-03-10T21:38:19.037Z,1.30
2023-03-10T21:40:24.306Z,1.40
2023-03-10T21:42:27.206Z,1.45
2023-03-10T21:44:30.761Z,1.10
2023-03-10T21:46:34.934Z,1.20
2023-03-10T21:48:37.752Z,1.17
2023-03-10T21:50:40.464Z,1.30
2023-03-10T21:52:43.897Z,1.20
2023-03-10T21:54:46.889Z,1.35
2023-03-10T21:56:49.627Z,0.90
2023-03-10T21:58:52.394Z,0.93
2023-03-10T22:00:56.312Z,1.00
2023-03-10T22:03:00.720Z,0.93
2023-03-10T22:05:03.951Z,1.30
2023-03-10T22:07:06.705Z,1.15
2023-03-10T22:09:09.472Z,1.17
2023-03-10T22:11:13.636Z,1.08
2023-03-10T22:13:16.422Z,1.35
2023-03-10T22:15:21.439Z,1.17
2023-03-10T22:17:24.998Z,1.30
2023-03-10T22:19:29.155Z,1.70
2023-03-10T22:21:32.012Z,1.50
2023-03-10T22:23:34.801Z,1.40
2023-03-10T22:25:37.549Z,1.45
2023-03-10T22:27:40.286Z,1.48
2023-03-10T22:29:43.200Z,1.17
2023-03-10T22:31:45.899Z,1.65
2023-03-10T22:33:49.182Z,1.20
2023-03-10T22:35:53.315Z,1.95
2023-03-10T22:37:56.149Z,2.03
2023-03-10T22:39:59.228Z,1.80
2023-03-10T22:42:02.003Z,1.65
2023-03-10T22:44:05.082Z,1.50
2023-03-10T22:46:10.115Z,1.73
2023-03-10T22:48:12.918Z,1.25
2023-03-10T22:50:17.836Z,1.48
2023-03-10T22:52:22.143Z,1.27
2023-03-10T22:54:25.042Z,1.13
2023-03-10T22:56:30.416Z,0.80
2023-03-10T22:58:33.685Z,0.85
2023-03-10T23:00:37.774Z,1.20
2023-03-10T23:02:40.663Z,0.90
2023-03-10T23:04:44.435Z,1.40
2023-03-10T23:06:47.211Z,0.90
2023-03-10T23:08:51.898Z,1.10
2023-03-10T23:10:54.751Z,0.98
2023-03-10T23:12:59.867Z,1.10
2023-03-10T23:15:07.057Z,0.82
2023-03-10T23:17:12.175Z,0.63
2023-03-10T23:19:14.964Z,0.90
2023-03-10T23:21:17.739Z,0.70
2023-03-10T23:23:20.592Z,0.82
2023-03-10T23:25:26.961Z,0.80
2023-03-10T23:27:29.767Z,0.60
2023-03-10T23:29:32.524Z,1.05
2023-03-10T23:31:35.292Z,0.70
2023-03-10T23:33:38.048Z,0.70
2023-03-10T23:35:41.016Z,0.60
2023-03-10T23:37:43.770Z,0.73
2023-03-10T23:39:47.468Z,1.13
2023-03-10T23:41:51.921Z,1.02
2023-03-10T23:43:55.078Z,0.90
2023-03-10T23:45:57.939Z,0.77
2023-03-10T23:48:04.708Z,1.00
2023-03-10T23:50:10.205Z,0.90
2023-03-10T23:52:12.982Z,0.90
2023-03-10T23:54:20.535Z,0.80
2023-03-10T23:56:23.257Z,0.88
2023-03-10T23:58:28.460Z,0.70
